createdAt,value
2023-01-13T00:00:27.688Z,6.47
2023-01-13T00:03:29.827Z,6.27
2023-01-13T00:06:31.936Z,6.19
2023-01-13T00:09:34.115Z,6.30
2023-01-13T00:12:39.681Z,6.62
2023-01-13T00:15:42.265Z,6.70
2023-01-13T00:18:44.888Z,6.57
2023-01-13T00:21:47.182Z,6.53
2023-01-13T00:24:49.508Z,6.31
2023-01-13T00:27:51.930Z,6.11
2023-01-13T00:30:58.531Z,6.02
2023-01-13T00:34:01.180Z,6.04
2023-01-13T00:37:03.428Z,6.02
2023-01-13T00:40:06.175Z,6.14
2023-01-13T00:43:23.997Z,6.14
2023-01-13T00:46:26.254Z,6.20
2023-01-13T00:49:28.459Z,6.40
2023-01-13T00:52:32.193Z,6.07
2023-01-13T00:55:34.436Z,6.21
2023-01-13T00:58:36.831Z,6.35
2023-01-13T01:01:39.953Z,6.25
2023-01-13T01:04:42.334Z,6.23
2023-01-13T01:07:44.465Z,6.15
2023-01-13T01:10:46.627Z,6.39
2023-01-13T01:13:49.358Z,6.38
2023-01-13T01:16:51.562Z,6.35
2023-01-13T01:19:53.772Z,6.47
2023-01-13T01:22:55.945Z,6.30
2023-01-13T01:26:02.045Z,6.19
2023-01-13T01:29:04.240Z,6.50
2023-01-13T01:32:06.483Z,6.29
2023-01-13T01:35:08.874Z,6.47
2023-01-13T01:38:11.246Z,6.55
2023-01-13T01:41:19.050Z,6.39
2023-01-13T01:44:42.846Z,6.63
2023-01-13T01:47:47.871Z,6.29
2023-01-13T01:50:50.023Z,6.31
2023-01-13T01:53:53.953Z,6.26
2023-01-13T01:56:56.268Z,6.19
2023-01-13T02:00:02.670Z,6.41
2023-01-13T02:03:15.761Z,6.51
2023-01-13T02:06:18.612Z,6.54
2023-01-13T02:09:20.794Z,6.43
2023-01-13T02:12:29.977Z,6.47
2023-01-13T02:15:47.985Z,6.61
2023-01-13T02:19:23.678Z,6.35
2023-01-13T02:22:37.973Z,6.60
2023-01-13T02:26:03.561Z,6.66
2023-01-13T02:29:30.931Z,6.48
2023-01-13T02:32:41.567Z,6.36
2023-01-13T02:35:59.619Z,6.57
2023-01-13T02:39:12.080Z,6.58
2023-01-13T02:42:51.729Z,6.52
2023-01-13T02:45:59.486Z,6.58
2023-01-13T02:49:05.476Z,6.55
2023-01-13T02:52:40.031Z,6.59
2023-01-13T02:55:48.989Z,6.51
2023-01-13T02:58:51.567Z,6.46
2023-01-13T03:01:56.174Z,6.50
2023-01-13T03:05:00.247Z,6.44
2023-01-13T03:08:21.470Z,6.58
2023-01-13T03:11:27.202Z,6.41
2023-01-13T03:14:43.008Z,6.59
2023-01-13T03:17:50.469Z,6.64
2023-01-13T03:21:21.810Z,6.66
2023-01-13T03:24:30.612Z,6.31
2023-01-13T03:27:42.071Z,6.62
2023-01-13T03:30:55.105Z,6.61
2023-01-13T03:34:19.673Z,6.68
2023-01-13T03:37:27.533Z,6.63
2023-01-13T03:40:33.907Z,6.61
2023-01-13T03:44:03.331Z,6.42
2023-01-13T03:47:33.751Z,6.49
2023-01-13T03:50:40.767Z,6.65
2023-01-13T03:53:50.278Z,6.68
2023-01-13T03:57:04.176Z,6.69
2023-01-13T04:00:09.556Z,6.80
2023-01-13T04:03:48.060Z,6.62
2023-01-13T04:07:20.966Z,6.54
2023-01-13T04:10:30.283Z,6.59
2023-01-13T04:13:35.859Z,6.62
2023-01-13T04:16:38.454Z,6.78
2023-01-13T04:19:40.836Z,6.52
2023-01-13T04:22:43.847Z,6.59
2023-01-13T04:25:46.854Z,6.79
2023-01-13T04:28:49.289Z,6.52
2023-01-13T04:31:51.479Z,6.56
2023-01-13T04:34:54.271Z,7.04
2023-01-13T04:37:56.708Z,6.73
2023-01-13T04:40:58.974Z,6.86
2023-01-13T04:44:01.177Z,6.79
2023-01-13T04:47:04.391Z,6.97
2023-01-13T04:50:06.891Z,7.03
2023-01-13T04:53:09.197Z,6.85
2023-01-13T04:56:11.388Z,6.83
2023-01-13T04:59:14.221Z,6.95
2023-01-13T05:02:19.928Z,6.75
2023-01-13T05:05:22.268Z,7.00
2023-01-13T05:08:24.485Z,6.89
2023-01-13T05:11:45.317Z,6.86
2023-01-13T05:15:05.911Z,6.69
2023-01-13T05:18:08.275Z,6.95
2023-01-13T05:21:30.444Z,6.85
2023-01-13T05:24:51.249Z,6.89
2023-01-13T05:27:58.824Z,7.15
2023-01-13T05:31:01.364Z,7.25
2023-01-13T05:34:03.819Z,7.24
2023-01-13T05:37:07.939Z,6.99
2023-01-13T05:40:30.279Z,6.78
2023-01-13T05:43:33.349Z,7.01
2023-01-13T05:46:35.596Z,7.08
2023-01-13T05:49:37.928Z,7.26
2023-01-13T05:52:40.344Z,7.37
2023-01-13T05:55:43.592Z,7.43
2023-01-13T05:58:45.788Z,7.40
2023-01-13T06:01:48.110Z,7.49
2023-01-13T06:04:50.350Z,7.30
2023-01-13T06:07:56.918Z,7.27
2023-01-13T06:10:59.248Z,7.35
2023-01-13T06:14:01.458Z,7.44
2023-01-13T06:17:03.727Z,7.35
2023-01-13T06:20:08.291Z,7.34
2023-01-13T06:23:11.897Z,7.37
2023-01-13T06:26:21.279Z,7.47
2023-01-13T06:29:24.073Z,7.35
2023-01-13T06:32:30.141Z,7.25
2023-01-13T06:35:34.490Z,6.94
2023-01-13T06:38:40.261Z,7.03
2023-01-13T06:42:16.644Z,7.18
2023-01-13T06:45:21.583Z,7.21
2023-01-13T06:48:27.517Z,7.25
2023-01-13T06:51:29.719Z,7.15
2023-01-13T06:54:32.273Z,7.18
2023-01-13T06:57:34.632Z,7.27
2023-01-13T07:00:39.850Z,7.38
2023-01-13T07:03:42.327Z,7.32
2023-01-13T07:06:45.263Z,7.37
2023-01-13T07:09:49.180Z,7.59
2023-01-13T07:13:25.746Z,7.92
2023-01-13T07:16:32.724Z,7.81
2023-01-13T07:19:35.252Z,7.56
2023-01-13T07:22:37.436Z,7.82
2023-01-13T07:25:39.619Z,7.92
2023-01-13T07:28:41.995Z,7.77
2023-01-13T07:31:44.556Z,7.76
2023-01-13T07:34:46.780Z,7.75
2023-01-13T07:37:49.031Z,7.76
2023-01-13T07:40:51.456Z,7.85
2023-01-13T07:43:54.142Z,7.88
2023-01-13T07:47:00.341Z,7.86
2023-01-13T07:50:02.664Z,7.84
2023-01-13T07:53:05.109Z,7.97
2023-01-13T07:56:08.196Z,8.03
2023-01-13T07:59:10.957Z,8.00
2023-01-13T08:02:20.720Z,7.94
2023-01-13T08:05:32.810Z,7.70
2023-01-13T08:08:40.578Z,7.72
2023-01-13T08:12:17.929Z,7.44
2023-01-13T08:15:21.690Z,8.00
2023-01-13T08:18:23.948Z,7.93
2023-01-13T08:21:28.426Z,8.03
2023-01-13T08:24:30.655Z,7.94
2023-01-13T08:27:34.892Z,8.04
2023-01-13T08:30:37.141Z,7.99
2023-01-13T08:33:40.258Z,7.95
2023-01-13T08:36:43.569Z,8.06
2023-01-13T08:39:48.487Z,7.94
2023-01-13T08:42:53.025Z,8.00
2023-01-13T08:46:01.319Z,7.86
2023-01-13T08:49:04.218Z,7.88
2023-01-13T08:52:13.184Z,7.94
2023-01-13T08:55:17.219Z,8.14
2023-01-13T09:02:33.779Z,7.94
2023-01-13T09:05:39.353Z,7.79
2023-01-13T09:08:46.651Z,7.57
2023-01-13T09:12:09.509Z,7.84
2023-01-13T09:15:12.277Z,7.68
2023-01-13T09:18:14.700Z,7.82
2023-01-13T09:21:20.026Z,7.40
2023-01-13T09:24:23.972Z,7.59
2023-01-13T09:27:27.209Z,7.76
2023-01-13T09:30:32.425Z,7.74
2023-01-13T09:33:54.593Z,8.00
2023-01-13T09:36:56.877Z,7.68
2023-01-13T09:40:20.116Z,7.88
2023-01-13T09:44:07.523Z,7.79
2023-01-13T09:47:20.818Z,7.96
2023-01-13T09:50:41.904Z,8.06
2023-01-13T09:54:02.738Z,7.79
2023-01-13T09:57:25.853Z,7.70
2023-01-13T10:00:35.525Z,7.79
2023-01-13T10:03:38.196Z,7.85
2023-01-13T10:06:43.123Z,7.73
2023-01-13T10:09:55.160Z,8.14
2023-01-13T10:13:15.605Z,8.09
2023-01-13T10:16:33.915Z,8.30
2023-01-13T10:19:49.760Z,8.01
2023-01-13T10:23:29.588Z,7.70
2023-01-13T10:26:40.179Z,8.24
2023-01-13T10:29:42.388Z,8.22
2023-01-13T10:32:49.435Z,8.43
2023-01-13T10:35:51.761Z,8.23
2023-01-13T10:39:07.155Z,7.91
2023-01-13T10:42:17.320Z,8.19
2023-01-13T10:45:24.854Z,8.57
2023-01-13T10:49:25.529Z,8.14
2023-01-13T10:52:35.406Z,8.05
2023-01-13T10:55:38.384Z,8.42
2023-01-13T10:58:50.135Z,8.20
2023-01-13T11:02:36.430Z,8.48
2023-01-13T11:05:41.417Z,8.24
2023-01-13T11:08:55.675Z,8.25
2023-01-13T11:12:05.837Z,8.12
2023-01-13T11:15:12.047Z,8.44
2023-01-13T11:18:25.228Z,8.30
2023-01-13T11:21:35.867Z,8.40
2023-01-13T11:24:41.061Z,8.18
2023-01-13T11:27:47.147Z,8.38
2023-01-13T11:30:56.849Z,8.37
2023-01-13T11:34:25.375Z,8.38
2023-01-13T11:37:28.833Z,8.21
2023-01-13T11:40:41.707Z,8.49
2023-01-13T11:44:10.029Z,8.52
2023-01-13T11:47:12.604Z,8.56
2023-01-13T11:51:10.595Z,8.64
2023-01-13T11:54:47.909Z,8.51
2023-01-13T11:58:14.497Z,8.49
2023-01-13T12:01:31.299Z,8.20
2023-01-13T12:05:17.450Z,8.32
2023-01-13T12:08:47.650Z,8.34
2023-01-13T12:12:11.612Z,8.64
2023-01-13T12:15:21.482Z,8.56
2023-01-13T12:18:33.353Z,8.45
2023-01-13T12:22:11.869Z,8.56
2023-01-13T12:25:34.491Z,8.46
2023-01-13T12:28:56.648Z,8.57
2023-01-13T12:32:00.787Z,8.39
2023-01-13T12:35:31.553Z,8.40
2023-01-13T12:38:43.530Z,8.46
2023-01-13T12:42:12.425Z,8.53
2023-01-13T12:45:14.601Z,8.26
2023-01-13T12:48:45.859Z,8.48
2023-01-13T12:51:55.674Z,8.37
2023-01-13T12:55:04.258Z,8.44
2023-01-13T12:58:07.134Z,8.55
2023-01-13T13:01:14.473Z,8.50
2023-01-13T13:04:21.611Z,8.52
2023-01-13T13:07:31.605Z,8.60
2023-01-13T13:10:39.313Z,8.76
2023-01-13T13:13:47.226Z,8.92
2023-01-13T13:16:50.335Z,8.88
2023-01-13T13:19:52.727Z,8.63
2023-01-13T13:22:54.898Z,8.69
2023-01-13T13:26:03.163Z,8.53
2023-01-13T13:29:27.447Z,8.71
2023-01-13T13:33:08.630Z,8.74
2023-01-13T13:36:54.095Z,8.83
2023-01-13T13:40:14.926Z,8.57
2023-01-13T13:43:38.650Z,8.76
2023-01-13T13:46:56.548Z,8.60
2023-01-13T13:50:13.623Z,8.57
2023-01-13T13:53:18.892Z,8.69
2023-01-13T13:56:24.892Z,8.41
2023-01-13T13:59:30.731Z,8.44
2023-01-13T14:02:36.727Z,8.54
2023-01-13T14:05:38.922Z,8.59
2023-01-13T14:08:46.126Z,8.71
2023-01-13T14:11:57.921Z,8.58
2023-01-13T14:15:00.317Z,8.43
2023-01-13T14:18:05.399Z,8.64
2023-01-13T14:21:29.305Z,8.67
2023-01-13T14:24:32.243Z,8.57
2023-01-13T14:27:35.397Z,8.51
2023-01-13T14:30:37.714Z,8.56
2023-01-13T14:33:43.638Z,8.60
2023-01-13T14:36:50.917Z,8.72
2023-01-13T14:39:53.205Z,8.50
2023-01-13T14:43:03.322Z,8.57
2023-01-13T14:46:05.554Z,8.61
2023-01-13T14:49:25.006Z,8.48
2023-01-13T14:52:38.399Z,8.32
2023-01-13T14:55:42.120Z,8.39
2023-01-13T14:58:44.351Z,8.32
2023-01-13T15:01:47.683Z,8.16
2023-01-13T15:04:53.918Z,8.22
2023-01-13T15:08:11.541Z,8.35
2023-01-13T15:11:27.567Z,8.30
2023-01-13T15:14:34.483Z,8.25
2023-01-13T15:17:36.990Z,8.19
2023-01-13T15:20:40.196Z,8.32
2023-01-13T15:23:42.740Z,8.19
2023-01-13T15:26:44.963Z,8.33
2023-01-13T15:29:47.988Z,8.29
2023-01-13T15:32:50.323Z,8.10
2023-01-13T15:35:53.303Z,8.15
2023-01-13T15:38:56.044Z,8.12
2023-01-13T15:42:16.875Z,8.16
2023-01-13T15:45:37.691Z,8.29
2023-01-13T15:48:39.859Z,8.10
2023-01-13T15:51:42.706Z,8.27
2023-01-13T15:54:44.908Z,8.40
2023-01-13T15:57:48.940Z,8.24
2023-01-13T16:00:51.132Z,8.13
2023-01-13T16:03:53.646Z,8.22
2023-01-13T16:06:56.569Z,8.26
2023-01-13T16:10:01.807Z,8.21
2023-01-13T16:13:04.081Z,8.28
2023-01-13T16:16:22.035Z,8.29
2023-01-13T16:19:24.233Z,8.26
2023-01-13T16:22:26.445Z,8.24
2023-01-13T16:25:28.683Z,8.36
2023-01-13T16:28:30.850Z,8.15
2023-01-13T16:31:34.369Z,8.31
2023-01-13T16:34:36.634Z,8.20
2023-01-13T16:37:38.900Z,8.04
2023-01-13T16:40:41.084Z,8.19
2023-01-13T16:43:43.701Z,8.22
2023-01-13T16:46:46.189Z,8.38
2023-01-13T16:49:48.402Z,8.43
2023-01-13T16:52:50.643Z,8.26
2023-01-13T16:55:52.881Z,8.22
2023-01-13T16:58:57.707Z,8.37
2023-01-13T17:02:01.928Z,8.26
2023-01-13T17:05:04.760Z,8.03
2023-01-13T17:08:07.161Z,8.06
2023-01-13T17:11:10.332Z,8.22
2023-01-13T17:14:18.609Z,8.13
2023-01-13T17:17:24.338Z,7.98
2023-01-13T17:20:26.598Z,8.22
2023-01-13T17:23:29.802Z,8.13
2023-01-13T17:26:37.195Z,8.15
2023-01-13T17:29:39.664Z,8.30
2023-01-13T17:32:42.159Z,8.32
2023-01-13T17:35:46.027Z,8.61
2023-01-13T17:38:48.268Z,8.42
2023-01-13T17:41:51.351Z,8.42
2023-01-13T17:44:54.420Z,8.16
2023-01-13T17:48:00.041Z,8.46
2023-01-13T17:51:03.525Z,8.57
2023-01-13T17:54:05.865Z,8.49
2023-01-13T17:57:08.109Z,8.47
2023-01-13T18:00:12.470Z,8.30
2023-01-13T18:03:15.897Z,8.56
2023-01-13T18:06:21.467Z,8.62
2023-01-13T18:09:26.798Z,8.47
2023-01-13T18:12:29.067Z,8.53
2023-01-13T18:15:31.479Z,8.56
2023-01-13T18:18:35.234Z,8.56
2023-01-13T18:21:56.178Z,8.73
2023-01-13T18:25:16.788Z,8.65
2023-01-13T18:28:19.083Z,8.72
2023-01-13T18:31:21.362Z,8.49
2023-01-13T18:34:23.627Z,8.52
2023-01-13T18:37:26.626Z,8.56
2023-01-13T18:40:28.831Z,8.54
2023-01-13T18:43:33.280Z,8.65
2023-01-13T18:46:35.729Z,8.50
2023-01-13T18:49:37.967Z,8.45
2023-01-13T18:52:41.321Z,8.69
2023-01-13T18:55:43.544Z,8.48
2023-01-13T18:58:51.973Z,8.46
2023-01-13T19:01:54.330Z,8.34
2023-01-13T19:04:57.217Z,8.57
2023-01-13T19:07:59.740Z,8.38
2023-01-13T19:11:05.938Z,8.64
2023-01-13T19:14:08.798Z,8.55
2023-01-13T19:17:13.941Z,8.36
2023-01-13T19:20:16.553Z,8.50
2023-01-13T19:23:19.476Z,8.68
2023-01-13T19:26:21.850Z,8.59
2023-01-13T19:29:24.218Z,8.43
2023-01-13T19:32:27.508Z,8.40
2023-01-13T19:35:29.775Z,8.57
2023-01-13T19:38:32.226Z,8.55
2023-01-13T19:41:53.056Z,8.28
2023-01-13T19:45:14.138Z,8.55
2023-01-13T19:48:16.737Z,8.60
2023-01-13T19:51:19.033Z,8.49
2023-01-13T19:54:21.349Z,8.37
2023-01-13T19:57:27.496Z,8.48
2023-01-13T20:00:29.713Z,8.30
2023-01-13T20:03:35.859Z,8.22
2023-01-13T20:06:38.135Z,7.97
2023-01-13T20:09:43.365Z,7.95
2023-01-13T20:12:45.657Z,7.77
2023-01-13T20:15:48.044Z,7.83
2023-01-13T20:18:51.401Z,8.25
2023-01-13T20:21:53.603Z,8.18
2023-01-13T20:24:55.895Z,8.28
2023-01-13T20:27:58.763Z,8.12
2023-01-13T20:31:01.049Z,8.31
2023-01-13T20:34:03.311Z,8.43
2023-01-13T20:37:05.699Z,8.34
2023-01-13T20:40:09.606Z,8.52
2023-01-13T20:43:11.871Z,8.55
2023-01-13T20:46:14.079Z,8.45
2023-01-13T20:49:16.403Z,8.32
2023-01-13T20:52:18.680Z,8.41
2023-01-13T20:55:21.219Z,8.29
2023-01-13T20:58:23.403Z,8.44
2023-01-13T21:01:26.597Z,8.43
2023-01-13T21:04:29.046Z,8.56
2023-01-13T21:07:31.289Z,8.71
2023-01-13T21:10:33.460Z,8.55
2023-01-13T21:13:54.163Z,8.68
2023-01-13T21:16:56.388Z,8.66
2023-01-13T21:19:59.160Z,8.81
2023-01-13T21:23:02.401Z,8.78
2023-01-13T21:26:05.242Z,8.75
2023-01-13T21:29:07.603Z,8.73
2023-01-13T21:32:12.910Z,8.53
2023-01-13T21:35:15.284Z,8.58
2023-01-13T21:38:17.506Z,8.43
2023-01-13T21:41:40.228Z,8.56
2023-01-13T21:45:00.957Z,8.40
2023-01-13T21:48:03.304Z,8.52
2023-01-13T21:51:05.799Z,8.23
2023-01-13T21:54:07.997Z,8.09
2023-01-13T21:57:10.314Z,8.10
2023-01-13T22:00:13.117Z,8.07
2023-01-13T22:03:15.360Z,8.01
2023-01-13T22:06:17.626Z,8.10
2023-01-13T22:09:19.871Z,8.00
2023-01-13T22:12:24.427Z,8.19
2023-01-13T22:15:29.132Z,8.27
2023-01-13T22:18:31.274Z,8.19
2023-01-13T22:21:33.969Z,8.01
2023-01-13T22:24:39.025Z,7.73
2023-01-13T22:27:44.371Z,8.06
2023-01-13T22:30:49.739Z,7.15
2023-01-13T22:33:55.568Z,7.94
2023-01-13T22:36:58.143Z,8.26
2023-01-13T22:40:00.407Z,8.33
2023-01-13T22:43:02.722Z,8.63
2023-01-13T22:46:10.574Z,8.25
2023-01-13T22:49:13.689Z,8.60
2023-01-13T22:52:17.215Z,8.46
2023-01-13T22:55:19.442Z,8.55
2023-01-13T22:58:21.783Z,8.40
2023-01-13T23:01:25.996Z,8.80
2023-01-13T23:04:29.203Z,8.74
2023-01-13T23:07:31.455Z,8.72
2023-01-13T23:10:33.912Z,8.58
2023-01-13T23:13:38.108Z,8.36
2023-01-13T23:16:40.861Z,8.48
2023-01-13T23:19:43.272Z,8.53
2023-01-13T23:22:45.973Z,8.42
2023-01-13T23:25:53.639Z,8.36
2023-01-13T23:29:02.999Z,8.29
2023-01-13T23:32:05.557Z,8.23
2023-01-13T23:35:09.058Z,8.48
2023-01-13T23:38:11.373Z,8.49
2023-01-13T23:41:16.160Z,8.41
2023-01-13T23:44:18.355Z,8.11
2023-01-13T23:47:20.543Z,8.32
2023-01-13T23:50:22.790Z,8.35
2023-01-13T23:53:31.030Z,8.27
2023-01-13T23:56:34.811Z,8.47
2023-01-13T23:59:37.011Z,8.36
